Monday, December 18, 2017, 4:42 AM CST
Back to Local

KHLC, Hill City Municipal Airport

Location: Hill City, KS, United States Lat: 39.367
Local Time: 4:42 AM CST (10:42 GMT) Lon: -99.833
Time Zone: US/Central Elev: 2230 ft

Show me the last for .
Show Decoded

2017-12-18 03:53 METAR KHLC 180953Z AUTO 26009KT 8SM CLR M03/M06 A3002 RMK AO2 SLP182 T10331056 =
2017-12-18 02:53 METAR KHLC 180853Z AUTO 28003KT 8SM CLR M04/M06 A3002 RMK AO2 SLP182 T10441056
                 53002 =
2017-12-18 01:53 METAR KHLC 180753Z AUTO 23004KT 8SM CLR M04/M05 A3002 RMK AO2 SLP181 T10441050 =
2017-12-18 00:53 METAR KHLC 180653Z AUTO 28006KT 7SM CLR M04/M06 A3001 RMK AO2 SLP181 T10441056 =
2017-12-17 23:53 METAR KHLC 180553Z AUTO 24004KT 6SM BR CLR M06/M07 A3002 RMK AO2 SLP185
                 T10611067 10022 21061 400611061 58007 =
2017-12-17 22:53 METAR KHLC 180453Z AUTO 27004KT 7SM CLR M04/M06 A3003 RMK AO2 SLP188 T10441056 =
2017-12-17 21:53 METAR KHLC 180353Z AUTO 24003KT 7SM CLR M04/M06 A3003 RMK AO2 SLP192 T10441061 =
2017-12-17 20:53 METAR KHLC 180253Z AUTO 29003KT 7SM CLR M04/M06 A3004 RMK AO2 SLP194 T10391056
                 51016 =
2017-12-17 19:53 METAR KHLC 180153Z AUTO 28003KT 8SM CLR M03/M05 A3003 RMK AO2 SLP191 T10331050 =
2017-12-17 18:53 METAR KHLC 180053Z AUTO 00000KT 8SM CLR 00/M03 A3001 RMK AO2 SLP180 T00001033 =
2017-12-17 17:53 METAR KHLC 172353Z AUTO 00000KT 9SM CLR 02/M02 A2999 RMK AO2 SLP171 T00171022
                 10061 20011 53001 =
2017-12-17 16:53 METAR KHLC 172253Z AUTO 35006KT 8SM CLR 04/M01 A2998 RMK AO2 SLP164 T00441011 =
2017-12-17 15:53 METAR KHLC 172153Z AUTO 35008KT 8SM CLR 06/M01 A2998 RMK AO2 SLP164 T00561006 =
2017-12-17 14:53 METAR KHLC 172053Z AUTO 34009KT 8SM CLR 06/M01 A2999 RMK AO2 SLP166 T00611006
                 55008 =
2017-12-17 13:53 METAR KHLC 171953Z AUTO 34010KT 9SM CLR 06/M01 A2998 RMK AO2 SLP164 T00611006 =
2017-12-17 12:53 METAR KHLC 171853Z AUTO 35013KT 8SM CLR 06/M01 A3000 RMK AO2 SLP171 T00561006 =
2017-12-17 11:53 METAR KHLC 171753Z AUTO 35012KT 8SM CLR 04/M01 A3001 RMK AO2 SLP174 T00441011
                 10050 21006 58010 =
2017-12-17 10:53 METAR KHLC 171653Z AUTO 36015KT 8SM CLR 03/M01 A3005 RMK AO2 SLP188 T00331011 =
2017-12-17 09:53 METAR KHLC 171553Z AUTO 35012KT 7SM CLR 01/M02 A3006 RMK AO2 SLP192 T00111017 =
2017-12-17 09:25 METAR KHLC 171525Z AUTO 33010KT 7SM SCT010 00/M02 A3005 RMK AO2 T00001017 =
2017-12-17 09:07 METAR KHLC 171507Z AUTO 33007KT 6SM BR BKN010 00/M02 A3005 RMK AO2 T00001017 =
2017-12-17 08:53 METAR KHLC 171453Z AUTO 33009KT 6SM BR BKN009 00/M02 A3004 RMK AO2 SLP189
                 T00001017 51030 =
2017-12-17 08:13 METAR KHLC 171413Z AUTO 36014KT 6SM BR BKN008 M01/M02 A3002 RMK AO2 T10061017 =
2017-12-17 08:01 METAR KHLC 171401Z AUTO 36014KT 5SM BR SCT008 M01/M02 A3001 RMK AO2 T10061017 =
2017-12-17 07:53 METAR KHLC 171353Z AUTO 36018G23KT 6SM BR BKN008 M01/M02 A3001 RMK AO2 SLP177
                 T10061017 =
2017-12-17 06:53 METAR KHLC 171253Z AUTO 35013KT 7SM OVC009 00/M02 A3000 RMK AO2 SLP173 T00001017
                 =
2017-12-17 06:27 METAR KHLC 171227Z AUTO 35009KT 7SM BKN010 OVC100 M01/M02 A2998 RMK AO2
                 T10061017 =
2017-12-17 05:53 METAR KHLC 171153Z AUTO 36010KT 7SM OVC100 00/M01 A2995 RMK AO2 SLP154 60000
                 T00001011 10028 20000 53010 =
2017-12-17 04:53 METAR KHLC 171053Z AUTO 01014KT 7SM FEW048 OVC095 01/M01 A2993 RMK AO2 SLP143
                 T00061011 =

Support USWX by starting your Amazon purchase here.